Accueil
METAR-TAF:

METAR-TAF

Aéroports :

Aérodrome de Whale Cove

Whale Cove, Nunavut, Canada

latitude: 62-14N, longitude: 092-36W, altitude: 20 m

Observation

Le bulletin a été fait il y a 1 heure et 44 minutes, à 12:00 UTC
Vent calme
Température -2°C
Humidité 80%
Pression 1021 hPa
Visibilité: 24.1 km
Ciel couvert à une hauteur de 1400 ft

METAR: CYXN 011200Z 00000KT 15SM OVC014 M02/M05 A3014 RMK SC8 SSS AFT 20UTC 1.0MM SLP210

Heure: 08:44 (13:44 UTC)


TAF: absent

Observations et prévisions météorologiques de plus de 4000 aéroports (messages METAR et TAF).

Les stations disponibles sont représentées par des disques jaunes et rouges sur la carte.

Passer la souris dessus pour voir le nom de la station.

Cliquer dessus pour voir les observations et prévisions météorologiques.

Pour changer de carte: cliquez sur les boutons verts avec une croix noire pour zoomer, sur le bouton vert avec un tiret pour effectuer un zoom arrière, ou sur les flèches vertes pour les cartes adjacentes.


METAR-TAF: